createdAt,value
2023-04-03T00:01:13.659Z,6.58
2023-04-03T00:03:42.680Z,6.41
2023-04-03T00:06:12.255Z,6.50
2023-04-03T00:08:40.113Z,6.08
2023-04-03T00:11:10.176Z,6.15
2023-04-03T00:13:38.433Z,6.09
2023-04-03T00:16:06.039Z,6.13
2023-04-03T00:18:34.950Z,6.34
2023-04-03T00:21:04.689Z,6.35
2023-04-03T00:23:32.755Z,6.58
2023-04-03T00:26:00.615Z,6.62
2023-04-03T00:28:28.047Z,6.25
2023-04-03T00:30:54.947Z,6.32
2023-04-03T00:33:23.112Z,6.51
2023-04-03T00:35:52.567Z,6.68
2023-04-03T00:38:20.428Z,6.09
2023-04-03T00:40:50.605Z,6.22
2023-04-03T00:43:25.619Z,5.77
2023-04-03T00:45:54.721Z,5.19
2023-04-03T00:48:44.742Z,5.40
2023-04-03T00:51:23.355Z,5.34
2023-04-03T00:54:04.080Z,5.26
2023-04-03T00:56:33.540Z,5.24
2023-04-03T00:59:05.299Z,5.42
2023-04-03T01:01:33.841Z,5.42
2023-04-03T01:04:02.263Z,5.53
2023-04-03T01:06:35.113Z,5.33
2023-04-03T01:09:03.978Z,5.57
2023-04-03T01:11:31.833Z,5.58
2023-04-03T01:13:58.961Z,5.54
2023-04-03T01:16:26.782Z,5.65
2023-04-03T01:18:53.931Z,5.70
2023-04-03T01:21:42.657Z,5.97
2023-04-03T01:24:25.233Z,5.92
2023-04-03T01:26:52.248Z,6.00
2023-04-03T01:29:19.425Z,6.42
2023-04-03T01:31:50.548Z,6.76
2023-04-03T01:34:17.793Z,6.90
2023-04-03T01:36:46.728Z,6.66
2023-04-03T01:39:14.947Z,6.79
2023-04-03T01:41:43.125Z,6.98
2023-04-03T01:44:10.042Z,7.20
2023-04-03T01:46:37.082Z,7.32
2023-04-03T01:49:04.304Z,7.50
2023-04-03T01:51:32.174Z,7.04
2023-04-03T01:53:58.986Z,6.75
2023-04-03T01:56:26.191Z,6.60
2023-04-03T01:58:52.926Z,6.87
2023-04-03T02:01:20.941Z,7.01
2023-04-03T02:03:47.817Z,7.19
2023-04-03T02:06:15.692Z,6.93
2023-04-03T02:08:42.922Z,6.96
2023-04-03T02:11:09.782Z,6.60
2023-04-03T02:13:36.932Z,6.73
2023-04-03T02:16:12.383Z,6.80
2023-04-03T02:18:39.800Z,6.80
2023-04-03T02:21:06.948Z,6.71
2023-04-03T02:23:34.088Z,6.57
2023-04-03T02:26:13.215Z,6.71
2023-04-03T02:28:42.164Z,6.68
2023-04-03T02:31:10.479Z,6.82
2023-04-03T02:33:38.651Z,6.95
2023-04-03T02:36:07.494Z,6.62
2023-04-03T02:38:34.769Z,6.65
2023-04-03T02:41:03.945Z,6.89
2023-04-03T02:43:30.959Z,6.80
2023-04-03T02:45:57.843Z,7.02
2023-04-03T02:48:25.059Z,6.87
2023-04-03T02:50:51.992Z,6.84
2023-04-03T02:53:19.343Z,6.78
2023-04-03T02:55:46.471Z,6.75
2023-04-03T02:58:13.660Z,6.80
2023-04-03T03:00:40.542Z,6.81
2023-04-03T03:03:07.610Z,7.03
2023-04-03T03:05:34.715Z,6.95
2023-04-03T03:08:01.531Z,7.05
2023-04-03T03:10:28.391Z,6.89
2023-04-03T03:12:55.738Z,6.98
2023-04-03T03:15:22.588Z,7.03
2023-04-03T03:17:49.389Z,7.11
2023-04-03T03:20:16.622Z,7.04
2023-04-03T03:22:43.461Z,7.09
2023-04-03T03:25:10.592Z,7.12
2023-04-03T03:27:37.490Z,7.08
2023-04-03T03:30:05.887Z,6.93
2023-04-03T03:32:32.756Z,6.91
2023-04-03T03:34:59.575Z,6.86
2023-04-03T03:37:26.434Z,6.90
2023-04-03T03:39:53.200Z,6.74
2023-04-03T03:42:20.052Z,6.87
2023-04-03T03:44:46.781Z,7.01
2023-04-03T03:47:13.698Z,6.88
2023-04-03T03:49:40.433Z,7.15
2023-04-03T03:52:07.261Z,6.95
2023-04-03T03:54:34.341Z,7.08
2023-04-03T03:57:01.017Z,7.25
2023-04-03T03:59:27.919Z,7.23
2023-04-03T04:01:54.721Z,6.93
2023-04-03T04:04:21.593Z,6.89
2023-04-03T04:06:48.355Z,6.88
2023-04-03T04:09:15.224Z,6.87
2023-04-03T04:11:42.336Z,7.06
2023-04-03T04:14:11.482Z,7.21
2023-04-03T04:16:38.234Z,7.31
2023-04-03T04:19:06.722Z,7.26
2023-04-03T04:21:34.430Z,6.90
2023-04-03T04:24:01.206Z,7.01
2023-04-03T04:26:28.012Z,6.79
2023-04-03T04:28:54.751Z,6.91
2023-04-03T04:31:21.515Z,6.75
2023-04-03T04:33:48.440Z,6.47
2023-04-03T04:36:16.108Z,6.58
2023-04-03T04:38:43.439Z,6.61
2023-04-03T04:41:10.268Z,6.86
2023-04-03T04:43:37.393Z,7.05
2023-04-03T04:46:13.420Z,6.98
2023-04-03T04:48:40.414Z,7.21
2023-04-03T04:51:07.457Z,7.37
2023-04-03T04:53:34.574Z,7.31
2023-04-03T04:56:01.445Z,7.30
2023-04-03T04:58:28.266Z,6.96
2023-04-03T05:01:21.438Z,7.08
2023-04-03T05:03:49.058Z,6.99
2023-04-03T05:06:16.017Z,7.19
2023-04-03T05:08:42.779Z,6.81
2023-04-03T05:11:09.553Z,6.89
2023-04-03T05:13:36.657Z,7.05
2023-04-03T05:16:03.619Z,7.18
2023-04-03T05:18:30.376Z,7.02
2023-04-03T05:20:57.112Z,7.06
2023-04-03T05:23:23.820Z,7.15
2023-04-03T05:25:50.792Z,7.37
2023-04-03T05:28:17.537Z,7.25
2023-04-03T05:30:44.393Z,7.39
2023-04-03T05:33:11.517Z,7.26
2023-04-03T05:35:42.931Z,7.45
2023-04-03T05:38:09.796Z,7.57
2023-04-03T05:40:36.872Z,7.70
2023-04-03T05:43:03.694Z,7.72
2023-04-03T05:45:31.277Z,7.86
2023-04-03T05:47:58.182Z,7.47
2023-04-03T05:50:25.779Z,7.66
2023-04-03T05:52:55.474Z,7.88
2023-04-03T05:55:22.474Z,7.80
2023-04-03T05:57:49.208Z,7.73
2023-04-03T06:00:19.221Z,7.83
2023-04-03T06:02:46.122Z,7.83
2023-04-03T06:05:14.246Z,7.92
2023-04-03T06:07:41.670Z,7.59
2023-04-03T06:10:10.177Z,7.34
2023-04-03T06:12:37.021Z,7.45
2023-04-03T06:15:04.751Z,7.54
2023-04-03T06:17:31.754Z,7.63
2023-04-03T06:19:59.512Z,7.79
2023-04-03T06:22:31.067Z,7.65
2023-04-03T06:24:58.513Z,8.14
2023-04-03T06:27:25.437Z,8.27
2023-04-03T06:29:52.998Z,7.65
2023-04-03T06:32:21.877Z,7.93
2023-04-03T06:34:48.777Z,7.91
2023-04-03T06:37:21.934Z,7.45
2023-04-03T06:39:49.486Z,7.80
2023-04-03T06:42:17.281Z,8.03
2023-04-03T06:44:44.797Z,8.39
2023-04-03T06:47:14.720Z,8.20
2023-04-03T06:49:45.353Z,8.24
2023-04-03T06:52:13.271Z,8.26
2023-04-03T06:54:41.080Z,7.48
2023-04-03T06:57:09.541Z,7.30
2023-04-03T06:59:37.656Z,7.12
2023-04-03T07:02:04.833Z,7.07
2023-04-03T07:04:31.994Z,7.17
2023-04-03T07:06:58.955Z,7.61
2023-04-03T07:09:27.354Z,7.90
2023-04-03T07:11:54.157Z,7.32
2023-04-03T07:14:22.259Z,7.65
2023-04-03T07:16:49.261Z,7.82
2023-04-03T07:19:16.311Z,7.87
2023-04-03T07:21:44.447Z,7.88
2023-04-03T07:24:15.949Z,8.14
2023-04-03T07:26:46.421Z,8.44
2023-04-03T07:29:13.517Z,8.18
2023-04-03T07:31:41.452Z,8.12
2023-04-03T07:34:08.654Z,8.18
2023-04-03T07:36:37.337Z,7.85
2023-04-03T07:39:04.920Z,8.15
2023-04-03T07:41:32.214Z,8.06
2023-04-03T07:44:00.182Z,8.44
2023-04-03T07:46:27.385Z,8.71
2023-04-03T07:48:56.577Z,8.88
2023-04-03T07:51:25.813Z,9.05
2023-04-03T07:53:52.590Z,9.17
2023-04-03T07:56:19.440Z,9.30
2023-04-03T07:58:46.800Z,9.64
2023-04-03T08:01:13.744Z,9.53
2023-04-03T08:03:41.674Z,9.58
2023-04-03T08:06:15.476Z,8.90
2023-04-03T08:08:42.847Z,8.71
2023-04-03T08:11:11.668Z,8.74
2023-04-03T08:13:39.152Z,8.76
2023-04-03T08:16:14.530Z,8.70
2023-04-03T08:18:42.250Z,8.53
2023-04-03T08:21:13.468Z,8.60
2023-04-03T08:23:42.806Z,8.43
2023-04-03T08:26:14.669Z,8.41
2023-04-03T08:28:42.806Z,8.36
2023-04-03T08:31:13.127Z,8.49
2023-04-03T08:33:41.451Z,8.64
2023-04-03T08:36:19.168Z,8.66
2023-04-03T08:38:46.440Z,9.06
2023-04-03T08:41:22.062Z,8.75
2023-04-03T08:44:17.401Z,9.03
2023-04-03T08:47:12.853Z,9.29
2023-04-03T08:49:58.631Z,9.64
2023-04-03T08:52:37.553Z,9.66
2023-04-03T08:55:14.631Z,9.72
2023-04-03T08:57:45.582Z,9.64
2023-04-03T09:00:26.763Z,9.74
2023-04-03T09:02:58.128Z,9.88
2023-04-03T09:05:44.312Z,10.19
2023-04-03T09:08:24.059Z,10.41
2023-04-03T09:11:08.402Z,10.64
2023-04-03T09:13:50.817Z,10.63
2023-04-03T09:16:28.971Z,10.45
2023-04-03T09:19:22.573Z,10.57
2023-04-03T09:21:50.487Z,10.67
2023-04-03T09:24:19.190Z,10.69
2023-04-03T09:27:01.668Z,10.53
2023-04-03T09:29:29.727Z,10.54
2023-04-03T09:32:01.586Z,10.06
2023-04-03T09:34:33.097Z,10.42
2023-04-03T09:37:07.091Z,10.52
2023-04-03T09:39:55.339Z,10.44
2023-04-03T09:42:25.127Z,10.65
2023-04-03T09:45:07.898Z,10.29
2023-04-03T09:47:37.892Z,9.98
2023-04-03T09:50:15.187Z,10.13
2023-04-03T09:52:49.246Z,10.62
2023-04-03T09:55:28.564Z,10.76
2023-04-03T09:58:05.032Z,9.73
2023-04-03T10:00:41.508Z,9.96
2023-04-03T10:03:27.612Z,10.13
2023-04-03T10:05:56.665Z,10.35
2023-04-03T10:08:27.637Z,10.65
2023-04-03T10:11:15.408Z,10.12
2023-04-03T10:14:04.112Z,10.01
2023-04-03T10:16:40.895Z,9.64
2023-04-03T10:19:19.754Z,9.88
2023-04-03T10:21:58.970Z,10.39
2023-04-03T10:24:43.101Z,11.26
2023-04-03T10:27:23.804Z,11.17
2023-04-03T10:30:09.948Z,10.95
2023-04-03T10:33:13.401Z,11.24
2023-04-03T10:35:59.686Z,10.69
2023-04-03T10:38:32.558Z,10.91
2023-04-03T10:41:33.141Z,10.82
2023-04-03T10:44:17.017Z,10.91
2023-04-03T10:46:57.228Z,10.62
2023-04-03T10:49:59.450Z,10.79
2023-04-03T10:52:33.896Z,10.99
2023-04-03T10:55:23.277Z,11.51
2023-04-03T10:57:51.086Z,12.18
2023-04-03T11:00:22.414Z,12.31
2023-04-03T11:02:57.798Z,12.38
2023-04-03T11:05:45.242Z,12.17
2023-04-03T11:08:50.676Z,12.55
2023-04-03T11:11:28.610Z,12.77
2023-04-03T11:14:03.240Z,12.63
2023-04-03T11:16:43.545Z,12.85
2023-04-03T11:19:30.439Z,12.72
2023-04-03T11:22:15.061Z,13.04
2023-04-03T11:24:48.618Z,12.29
2023-04-03T11:27:23.767Z,13.00
2023-04-03T11:29:54.587Z,12.78
2023-04-03T11:32:28.420Z,13.12
2023-04-03T11:35:00.306Z,13.47
2023-04-03T11:37:39.346Z,13.04
2023-04-03T11:40:31.107Z,12.88
2023-04-03T11:43:01.787Z,13.26
2023-04-03T11:45:54.107Z,13.86
2023-04-03T11:48:29.849Z,13.92
2023-04-03T11:50:58.610Z,13.81
2023-04-03T11:53:37.881Z,13.09
2023-04-03T11:56:05.993Z,12.91
2023-04-03T11:58:36.122Z,12.71
2023-04-03T12:01:12.594Z,12.31
2023-04-03T12:03:43.491Z,12.86
2023-04-03T12:06:11.612Z,12.79
2023-04-03T12:08:48.242Z,13.06
2023-04-03T12:11:27.495Z,13.56
2023-04-03T12:13:55.123Z,14.05
2023-04-03T12:16:33.869Z,14.38
2023-04-03T12:19:17.641Z,13.98
2023-04-03T12:21:48.581Z,13.26
2023-04-03T12:24:18.345Z,13.03
2023-04-03T12:27:00.718Z,12.91
2023-04-03T12:29:41.366Z,13.39
2023-04-03T12:32:27.609Z,13.69
2023-04-03T12:35:07.566Z,13.84
2023-04-03T12:38:03.170Z,13.16
2023-04-03T12:40:42.713Z,12.91
2023-04-03T12:43:45.056Z,12.78
2023-04-03T12:46:22.154Z,11.78
2023-04-03T12:48:56.635Z,12.18
2023-04-03T12:51:41.808Z,12.02
2023-04-03T12:54:27.253Z,12.43
2023-04-03T12:57:30.342Z,11.99
2023-04-03T12:59:58.049Z,12.17
2023-04-03T13:02:29.295Z,11.99
2023-04-03T13:05:00.763Z,12.26
2023-04-03T13:07:34.770Z,12.13
2023-04-03T13:10:07.993Z,12.16
2023-04-03T13:12:57.408Z,12.30
2023-04-03T13:15:27.044Z,12.21
2023-04-03T13:17:55.704Z,12.25
2023-04-03T13:20:37.372Z,12.22
2023-04-03T13:23:09.975Z,12.27
2023-04-03T13:25:44.020Z,11.94
2023-04-03T13:28:16.542Z,11.96
2023-04-03T13:30:57.923Z,11.93
2023-04-03T13:33:28.683Z,11.94
2023-04-03T13:36:08.984Z,11.69
2023-04-03T13:38:37.615Z,11.87
2023-04-03T13:41:24.938Z,11.74
2023-04-03T13:43:57.602Z,11.73
2023-04-03T13:46:29.302Z,11.72
2023-04-03T13:48:57.985Z,11.77
2023-04-03T13:51:29.758Z,11.54
2023-04-03T13:54:01.376Z,11.72
2023-04-03T13:56:40.231Z,11.69
2023-04-03T13:59:14.613Z,11.72
2023-04-03T14:01:51.254Z,11.83
2023-04-03T14:04:24.381Z,11.31
2023-04-03T14:06:52.845Z,11.37
2023-04-03T14:09:21.768Z,11.87
2023-04-03T14:11:58.504Z,12.00
2023-04-03T14:14:32.050Z,12.14
2023-04-03T14:17:03.424Z,12.14
2023-04-03T14:19:34.741Z,11.90
2023-04-03T14:22:17.414Z,11.72
2023-04-03T14:24:44.915Z,11.31
2023-04-03T14:27:30.148Z,11.43
2023-04-03T14:29:59.683Z,11.11
2023-04-03T14:32:28.965Z,11.57
2023-04-03T14:34:58.127Z,11.65
2023-04-03T14:37:30.725Z,11.68
2023-04-03T14:40:00.775Z,11.16
2023-04-03T14:42:32.067Z,10.81
2023-04-03T14:45:00.973Z,11.62
2023-04-03T14:47:32.123Z,11.90
2023-04-03T14:50:06.187Z,11.85
2023-04-03T14:52:36.920Z,11.28
2023-04-03T14:55:09.405Z,10.67
2023-04-03T14:57:39.174Z,11.03
2023-04-03T15:00:13.338Z,10.99
2023-04-03T15:02:41.569Z,10.89
2023-04-03T15:05:11.820Z,10.85
2023-04-03T15:07:43.947Z,10.55
2023-04-03T15:10:29.773Z,10.68
2023-04-03T15:12:58.201Z,10.76
2023-04-03T15:15:29.688Z,10.87
2023-04-03T15:18:01.237Z,10.93
2023-04-03T15:20:31.935Z,10.99
2023-04-03T15:23:02.282Z,11.14
2023-04-03T15:25:30.533Z,11.26
2023-04-03T15:27:58.846Z,11.32
2023-04-03T15:30:26.737Z,11.30
2023-04-03T15:32:54.505Z,11.22
2023-04-03T15:35:23.905Z,11.21
2023-04-03T15:37:52.449Z,10.86
2023-04-03T15:40:20.219Z,10.78
2023-04-03T15:42:47.911Z,10.64
2023-04-03T15:45:14.953Z,10.71
2023-04-03T15:47:43.112Z,10.60
2023-04-03T15:50:11.210Z,10.70
2023-04-03T15:52:38.285Z,10.75
2023-04-03T15:55:05.880Z,10.47
2023-04-03T16:00:00.249Z,10.41
2023-04-03T16:02:28.784Z,10.49
2023-04-03T16:04:56.952Z,10.66
2023-04-03T16:07:24.698Z,10.53
2023-04-03T16:09:51.494Z,10.67
2023-04-03T16:12:18.996Z,10.55
2023-04-03T16:14:45.803Z,10.66
2023-04-03T16:17:13.345Z,10.28
2023-04-03T16:19:40.280Z,10.06
2023-04-03T16:22:08.256Z,10.05
2023-04-03T16:24:36.913Z,10.10
2023-04-03T16:27:04.980Z,10.27
2023-04-03T16:29:32.023Z,10.55
2023-04-03T16:32:00.441Z,10.44
2023-04-03T16:34:28.130Z,10.54
2023-04-03T16:36:55.730Z,10.66
2023-04-03T16:39:23.394Z,10.82
2023-04-03T16:41:50.246Z,10.30
2023-04-03T16:44:17.970Z,10.47
2023-04-03T16:46:46.225Z,10.31
2023-04-03T16:49:15.548Z,10.20
2023-04-03T16:51:43.249Z,10.23
2023-04-03T16:54:11.614Z,9.61
2023-04-03T16:56:39.504Z,9.56
2023-04-03T16:59:07.386Z,9.33
2023-04-03T17:01:35.073Z,9.23
2023-04-03T17:04:01.909Z,9.25
2023-04-03T17:06:29.998Z,9.29
2023-04-03T17:08:57.075Z,9.32
2023-04-03T17:11:24.840Z,8.50
2023-04-03T17:13:51.861Z,8.37
2023-04-03T17:16:18.783Z,8.45
2023-04-03T17:18:46.402Z,8.72
2023-04-03T17:21:14.527Z,8.68
2023-04-03T17:23:43.874Z,8.85
2023-04-03T17:26:10.713Z,8.76
2023-04-03T17:28:40.838Z,8.57
2023-04-03T17:31:08.050Z,8.32
2023-04-03T17:33:35.769Z,8.18
2023-04-03T17:36:04.650Z,8.03
2023-04-03T17:38:33.641Z,8.11
2023-04-03T17:41:04.917Z,8.41
2023-04-03T17:43:31.789Z,8.27
2023-04-03T17:46:03.927Z,8.43
2023-04-03T17:48:32.243Z,8.31
2023-04-03T17:50:59.722Z,7.93
2023-04-03T17:53:27.728Z,7.89
2023-04-03T17:55:54.550Z,7.66
2023-04-03T17:58:21.358Z,7.59
2023-04-03T18:00:48.251Z,7.65
2023-04-03T18:03:15.242Z,7.41
2023-04-03T18:05:42.287Z,7.16
2023-04-03T18:08:09.348Z,7.24
2023-04-03T18:10:37.785Z,6.78
2023-04-03T18:13:07.678Z,6.76
2023-04-03T18:15:34.575Z,7.11
2023-04-03T18:18:01.485Z,7.07
2023-04-03T18:20:29.566Z,6.91
2023-04-03T18:22:56.210Z,6.73
2023-04-03T18:25:23.255Z,6.51
2023-04-03T18:27:50.380Z,6.30
2023-04-03T18:30:18.354Z,6.33
2023-04-03T18:32:45.634Z,6.35
2023-04-03T18:35:13.029Z,6.49
2023-04-03T18:37:39.943Z,6.44
2023-04-03T18:40:07.336Z,5.93
2023-04-03T18:42:34.292Z,5.91
2023-04-03T18:45:04.736Z,5.65
2023-04-03T18:47:32.342Z,5.80
2023-04-03T18:50:00.424Z,5.62
2023-04-03T18:52:27.300Z,5.34
2023-04-03T18:54:54.406Z,5.50
2023-04-03T18:57:21.263Z,5.55
2023-04-03T18:59:48.184Z,5.48
2023-04-03T19:02:16.756Z,5.47
2023-04-03T19:04:43.866Z,5.57
2023-04-03T19:07:10.959Z,5.44
2023-04-03T19:09:38.864Z,5.55
2023-04-03T19:12:07.350Z,5.64
2023-04-03T19:14:34.246Z,5.56
2023-04-03T19:17:02.425Z,5.33
2023-04-03T19:19:29.933Z,5.11
2023-04-03T19:21:56.896Z,5.05
2023-04-03T19:24:24.021Z,4.80
2023-04-03T19:26:50.870Z,4.90
2023-04-03T19:29:18.045Z,5.08
2023-04-03T19:31:45.159Z,4.88
2023-04-03T19:34:13.545Z,4.90
2023-04-03T19:36:40.975Z,4.91
2023-04-03T19:39:08.239Z,4.66
2023-04-03T19:41:37.104Z,4.44
2023-04-03T19:44:07.426Z,4.32
2023-04-03T19:46:35.561Z,4.39
2023-04-03T19:49:02.835Z,4.28
2023-04-03T19:51:29.711Z,4.02
2023-04-03T19:53:57.147Z,4.03
2023-04-03T19:56:24.125Z,3.86
2023-04-03T19:58:54.379Z,3.89
2023-04-03T20:01:22.398Z,3.66
2023-04-03T20:03:49.513Z,3.38
2023-04-03T20:06:17.223Z,3.46
2023-04-03T20:08:44.324Z,3.55
2023-04-03T20:11:12.046Z,3.39
2023-04-03T20:13:39.032Z,3.48
2023-04-03T20:16:07.676Z,3.39
2023-04-03T20:18:35.657Z,3.17
2023-04-03T20:21:05.786Z,3.19
2023-04-03T20:23:34.345Z,3.07
2023-04-03T20:26:09.576Z,3.04
2023-04-03T20:28:39.351Z,2.92
2023-04-03T20:31:08.488Z,3.01
2023-04-03T20:33:35.614Z,3.10
2023-04-03T20:36:02.948Z,3.16
2023-04-03T20:38:30.001Z,3.19
2023-04-03T20:40:56.843Z,3.07
2023-04-03T20:43:23.838Z,3.18
2023-04-03T20:45:51.172Z,3.20
2023-04-03T20:48:18.703Z,3.15
2023-04-03T20:50:46.803Z,2.97
2023-04-03T20:53:15.284Z,3.11
2023-04-03T20:55:42.575Z,3.00
2023-04-03T20:58:09.977Z,2.97
2023-04-03T21:00:38.259Z,2.84
2023-04-03T21:03:06.210Z,2.86
2023-04-03T21:05:35.194Z,2.77
2023-04-03T21:08:40.222Z,2.65
2023-04-03T21:11:44.856Z,2.58
2023-04-03T21:14:49.264Z,2.39
2023-04-03T21:17:16.568Z,2.42
2023-04-03T21:19:46.734Z,2.45
2023-04-03T21:22:14.712Z,2.49
2023-04-03T21:24:42.771Z,2.56
2023-04-03T21:27:09.477Z,2.64
2023-04-03T21:29:36.353Z,2.33
2023-04-03T21:32:03.233Z,2.22
2023-04-03T21:34:31.228Z,2.32
2023-04-03T21:37:03.470Z,2.27
2023-04-03T21:39:30.785Z,2.34
2023-04-03T21:41:57.792Z,2.37
2023-04-03T21:47:21.509Z,2.36
2023-04-03T21:49:48.663Z,2.45
2023-04-03T21:52:15.571Z,2.44
2023-04-03T21:54:42.494Z,2.17
2023-04-03T21:57:11.858Z,2.17
2023-04-03T21:59:39.158Z,2.28
2023-04-03T22:02:06.228Z,2.13
2023-04-03T22:04:33.292Z,2.14
2023-04-03T22:07:00.020Z,2.27
2023-04-03T22:09:26.898Z,2.29
2023-04-03T22:11:53.594Z,2.29
2023-04-03T22:14:20.395Z,2.11
2023-04-03T22:16:47.159Z,2.14
2023-04-03T22:19:14.626Z,2.03
2023-04-03T22:21:42.628Z,2.09
2023-04-03T22:24:09.484Z,2.15
2023-04-03T22:26:36.462Z,2.08
2023-04-03T22:29:03.976Z,2.15
2023-04-03T22:31:31.105Z,2.16
2023-04-03T22:33:59.153Z,2.16
2023-04-03T22:36:26.211Z,2.10
2023-04-03T22:38:53.054Z,1.95
2023-04-03T22:41:19.822Z,2.03
2023-04-03T22:43:46.560Z,2.00
2023-04-03T22:46:14.151Z,2.15
2023-04-03T22:48:45.544Z,2.14
2023-04-03T22:51:13.080Z,2.21
2023-04-03T22:53:39.966Z,2.25
2023-04-03T22:56:11.315Z,2.15
2023-04-03T22:58:39.172Z,2.20
2023-04-03T23:01:11.888Z,2.24
2023-04-03T23:03:40.856Z,2.35
2023-04-03T23:06:09.092Z,2.44
2023-04-03T23:08:38.098Z,2.12
2023-04-03T23:11:07.444Z,2.22
2023-04-03T23:13:34.319Z,2.17
2023-04-03T23:16:02.579Z,2.29
2023-04-03T23:18:31.636Z,2.21
2023-04-03T23:21:03.682Z,2.05
2023-04-03T23:23:31.261Z,2.21
2023-04-03T23:26:02.824Z,2.11
2023-04-03T23:28:30.148Z,2.16
2023-04-03T23:31:02.049Z,2.04
2023-04-03T23:33:30.919Z,2.01
2023-04-03T23:35:58.680Z,2.11
2023-04-03T23:38:25.987Z,2.25
2023-04-03T23:40:52.888Z,2.29
2023-04-03T23:43:19.742Z,2.41
2023-04-03T23:45:46.860Z,2.21
2023-04-03T23:48:13.776Z,2.21
2023-04-03T23:50:40.878Z,2.34
2023-04-03T23:53:08.655Z,2.32
2023-04-03T23:55:35.789Z,2.25
2023-04-03T23:58:02.878Z,2.03
